createdAt,value
2022-09-22T00:01:22.112Z,96.37
2022-09-22T00:03:55.793Z,96.85
2022-09-22T00:06:26.043Z,95.95
2022-09-22T00:08:56.154Z,95.53
2022-09-22T00:11:29.187Z,95.85
2022-09-22T00:14:00.022Z,94.99
2022-09-22T00:16:37.629Z,94.25
2022-09-22T00:19:18.350Z,96.58
2022-09-22T00:21:46.433Z,96.11
2022-09-22T00:24:14.123Z,96.65
2022-09-22T00:26:41.719Z,95.99
2022-09-22T00:29:10.807Z,95.91
2022-09-22T00:31:40.642Z,96.22
2022-09-22T00:34:08.837Z,96.31
2022-09-22T00:36:35.979Z,96.59
2022-09-22T00:39:02.989Z,96.28
2022-09-22T00:41:36.673Z,95.73
2022-09-22T00:44:40.388Z,96.17
2022-09-22T00:47:32.358Z,96.08
2022-09-22T00:50:09.410Z,96.51
2022-09-22T00:52:43.074Z,95.32
2022-09-22T00:55:19.193Z,96.44
2022-09-22T00:57:47.973Z,95.30
2022-09-22T01:00:16.358Z,96.79
2022-09-22T01:02:49.503Z,95.69
2022-09-22T01:05:18.353Z,96.55
2022-09-22T01:07:47.442Z,95.96
2022-09-22T01:10:14.824Z,96.33
2022-09-22T01:12:48.782Z,96.64
2022-09-22T01:15:35.183Z,96.19
2022-09-22T01:18:14.802Z,95.11
2022-09-22T01:20:50.755Z,96.07
2022-09-22T01:23:39.390Z,96.41
2022-09-22T01:26:20.522Z,96.43
2022-09-22T01:28:54.394Z,97.49
2022-09-22T01:31:37.832Z,96.45
2022-09-22T01:34:30.641Z,96.17
2022-09-22T01:37:14.149Z,96.59
2022-09-22T01:40:06.016Z,96.56
2022-09-22T01:42:46.989Z,96.31
2022-09-22T01:45:22.018Z,96.79
2022-09-22T01:47:57.924Z,97.20
2022-09-22T01:50:34.742Z,97.91
2022-09-22T01:53:07.728Z,97.10
2022-09-22T01:55:40.887Z,96.78
2022-09-22T01:58:11.109Z,96.13
2022-09-22T02:00:42.403Z,95.83
2022-09-22T02:03:25.050Z,96.50
2022-09-22T02:06:06.568Z,96.71
2022-09-22T02:08:58.066Z,97.87
2022-09-22T02:11:25.510Z,96.27
2022-09-22T02:13:53.355Z,97.67
2022-09-22T02:16:23.952Z,99.03
2022-09-22T02:19:13.078Z,98.43
2022-09-22T02:21:44.870Z,99.60
2022-09-22T02:24:33.794Z,99.00
2022-09-22T02:27:06.316Z,100.00
2022-09-22T02:29:38.383Z,100.00
2022-09-22T02:32:10.504Z,100.00
2022-09-22T02:34:38.214Z,100.00
2022-09-22T02:37:23.508Z,100.00
2022-09-22T02:40:03.904Z,100.00
2022-09-22T02:42:39.385Z,100.00
2022-09-22T02:45:14.106Z,100.00
2022-09-22T02:47:47.903Z,100.00
2022-09-22T02:50:18.976Z,100.00
2022-09-22T02:52:46.023Z,100.00
2022-09-22T02:55:14.395Z,99.38
2022-09-22T02:57:41.461Z,98.87
2022-09-22T03:00:09.130Z,99.92
2022-09-22T03:02:36.550Z,100.00
2022-09-22T03:05:04.420Z,100.00
2022-09-22T03:07:31.791Z,100.00
2022-09-22T03:09:58.804Z,100.00
2022-09-22T03:12:26.083Z,100.00
2022-09-22T03:14:53.158Z,100.00
2022-09-22T03:17:20.337Z,100.00
2022-09-22T03:19:47.357Z,100.00
2022-09-22T03:22:14.476Z,100.00
2022-09-22T03:24:41.490Z,100.00
2022-09-22T03:27:08.630Z,100.00
2022-09-22T03:29:35.745Z,100.00
2022-09-22T03:32:02.875Z,100.00
2022-09-22T03:34:29.896Z,100.00
2022-09-22T03:36:56.881Z,100.00
2022-09-22T03:39:23.905Z,100.00
2022-09-22T03:41:50.885Z,100.00
2022-09-22T03:44:18.445Z,100.00
2022-09-22T03:46:45.533Z,100.00
2022-09-22T03:49:15.854Z,100.00
2022-09-22T03:51:43.408Z,100.00
2022-09-22T03:54:10.520Z,100.00
2022-09-22T03:56:37.613Z,100.00
2022-09-22T03:59:04.790Z,100.00
2022-09-22T04:01:32.632Z,100.00
2022-09-22T04:03:59.683Z,100.00
2022-09-22T04:06:26.675Z,100.00
2022-09-22T04:08:54.033Z,100.00
2022-09-22T04:11:21.391Z,100.00
2022-09-22T04:13:48.355Z,100.00
2022-09-22T04:16:15.637Z,100.00
2022-09-22T04:18:43.912Z,100.00
2022-09-22T04:21:10.955Z,100.00
2022-09-22T04:23:37.993Z,100.00
2022-09-22T04:26:05.900Z,100.00
2022-09-22T04:28:33.418Z,100.00
2022-09-22T04:31:00.549Z,100.00
2022-09-22T04:33:28.032Z,100.00
2022-09-22T04:35:55.019Z,100.00
2022-09-22T04:38:22.040Z,100.00
2022-09-22T04:40:50.008Z,100.00
2022-09-22T04:43:16.949Z,100.00
2022-09-22T04:45:48.967Z,100.00
2022-09-22T04:48:17.138Z,100.00
2022-09-22T04:50:48.143Z,100.00
2022-09-22T04:53:15.933Z,100.00
2022-09-22T04:55:42.936Z,100.00
2022-09-22T04:58:10.173Z,100.00
2022-09-22T05:00:37.323Z,100.00
2022-09-22T05:03:14.897Z,100.00
2022-09-22T05:05:44.463Z,100.00
2022-09-22T05:08:11.569Z,100.00
2022-09-22T05:10:38.762Z,100.00
2022-09-22T05:13:06.105Z,100.00
2022-09-22T05:15:36.804Z,100.00
2022-09-22T05:18:03.912Z,100.00
2022-09-22T05:20:33.892Z,100.00
2022-09-22T05:23:01.078Z,100.00
2022-09-22T05:25:28.462Z,100.00
2022-09-22T05:27:57.028Z,100.00
2022-09-22T05:30:25.909Z,100.00
2022-09-22T05:32:53.842Z,100.00
2022-09-22T05:35:23.615Z,100.00
2022-09-22T05:37:52.412Z,100.00
2022-09-22T05:40:20.699Z,100.00
2022-09-22T05:42:49.777Z,100.00
2022-09-22T05:45:18.481Z,100.00
2022-09-22T05:47:45.656Z,100.00
2022-09-22T05:50:15.242Z,100.00
2022-09-22T05:52:42.611Z,100.00
2022-09-22T05:55:10.870Z,100.00
2022-09-22T05:57:37.845Z,100.00
2022-09-22T06:00:06.945Z,100.00
2022-09-22T06:02:33.963Z,100.00
2022-09-22T06:05:01.365Z,100.00
2022-09-22T06:07:31.059Z,100.00
2022-09-22T06:09:58.093Z,100.00
2022-09-22T06:12:25.358Z,100.00
2022-09-22T06:14:52.307Z,100.00
2022-09-22T06:17:19.235Z,100.00
2022-09-22T06:19:50.519Z,100.00
2022-09-22T06:22:22.146Z,100.00
2022-09-22T06:24:51.588Z,100.00
2022-09-22T06:27:20.369Z,100.00
2022-09-22T06:29:49.098Z,100.00
2022-09-22T06:32:19.956Z,100.00
2022-09-22T06:34:48.675Z,94.94
2022-09-22T06:37:17.984Z,96.12
2022-09-22T06:39:46.561Z,91.92
2022-09-22T06:42:18.257Z,87.46
2022-09-22T06:44:47.842Z,87.26
2022-09-22T06:47:17.032Z,86.52
2022-09-22T06:49:45.327Z,86.88
2022-09-22T06:52:17.626Z,85.19
2022-09-22T06:54:46.397Z,81.29
2022-09-22T06:57:15.071Z,81.51
2022-09-22T06:59:45.054Z,82.50
2022-09-22T07:02:13.829Z,81.82
2022-09-22T07:04:44.705Z,81.55
2022-09-22T07:07:13.678Z,80.77
2022-09-22T07:09:42.801Z,80.36
2022-09-22T07:12:11.356Z,80.35
2022-09-22T07:14:38.393Z,81.70
2022-09-22T07:17:05.657Z,78.96
2022-09-22T07:19:35.753Z,78.23
2022-09-22T07:22:03.516Z,78.24
2022-09-22T07:24:30.446Z,79.18
2022-09-22T07:26:58.324Z,78.33
2022-09-22T07:29:25.513Z,78.66
2022-09-22T07:31:53.916Z,77.11
2022-09-22T07:34:20.932Z,74.20
2022-09-22T07:36:49.890Z,74.91
2022-09-22T07:39:17.027Z,72.55
2022-09-22T07:41:44.176Z,72.96
2022-09-22T07:44:31.991Z,72.12
2022-09-22T07:46:59.443Z,74.15
2022-09-22T07:49:27.126Z,72.72
2022-09-22T07:51:58.134Z,74.21
2022-09-22T07:54:26.265Z,72.85
2022-09-22T07:56:58.918Z,72.54
2022-09-22T07:59:26.447Z,71.79
2022-09-22T08:01:54.094Z,71.83
2022-09-22T08:04:26.793Z,71.80
2022-09-22T08:06:57.953Z,71.76
2022-09-22T08:09:26.188Z,71.60
2022-09-22T08:11:53.657Z,70.86
2022-09-22T08:14:23.871Z,69.73
2022-09-22T08:16:53.904Z,68.70
2022-09-22T08:19:23.516Z,67.51
2022-09-22T08:21:53.247Z,68.10
2022-09-22T08:24:24.197Z,66.92
2022-09-22T08:26:57.038Z,67.16
2022-09-22T08:29:26.271Z,67.50
2022-09-22T08:31:55.675Z,67.86
2022-09-22T08:34:25.764Z,68.20
2022-09-22T08:36:55.343Z,67.89
2022-09-22T08:39:23.557Z,67.95
2022-09-22T08:42:11.255Z,66.99
2022-09-22T08:45:26.228Z,65.01
2022-09-22T08:48:25.156Z,63.97
2022-09-22T08:51:18.567Z,63.70
2022-09-22T08:53:51.384Z,62.54
2022-09-22T08:56:43.642Z,62.54
2022-09-22T09:00:00.295Z,63.76
2022-09-22T09:02:30.052Z,63.23
2022-09-22T09:05:13.272Z,63.51
2022-09-22T09:08:09.542Z,63.18
2022-09-22T09:10:57.448Z,63.31
2022-09-22T09:13:51.832Z,63.14
2022-09-22T09:16:37.945Z,63.99
2022-09-22T09:19:22.775Z,63.89
2022-09-22T09:21:59.492Z,64.21
2022-09-22T09:27:40.903Z,62.57
2022-09-22T09:30:16.709Z,62.19
2022-09-22T09:33:02.183Z,60.70
2022-09-22T09:35:42.076Z,61.26
2022-09-22T09:38:15.727Z,61.25
2022-09-22T09:40:56.988Z,60.54
2022-09-22T09:43:29.344Z,58.87
2022-09-22T09:46:19.882Z,59.39
2022-09-22T09:49:26.308Z,59.62
2022-09-22T09:52:04.234Z,59.74
2022-09-22T09:54:33.819Z,58.46
2022-09-22T09:57:11.802Z,54.60
2022-09-22T10:00:02.085Z,54.42
2022-09-22T10:02:40.643Z,54.66
2022-09-22T10:05:32.755Z,55.34
2022-09-22T10:08:22.333Z,55.24
2022-09-22T10:10:59.360Z,55.40
2022-09-22T10:13:32.634Z,55.73
2022-09-22T10:16:10.460Z,56.59
2022-09-22T10:18:41.764Z,55.45
2022-09-22T10:21:24.205Z,55.50
2022-09-22T10:23:56.366Z,56.14
2022-09-22T10:26:33.284Z,56.79
2022-09-22T10:29:20.173Z,57.16
2022-09-22T10:32:05.414Z,56.17
2022-09-22T10:34:37.419Z,58.89
2022-09-22T10:37:11.409Z,57.23
2022-09-22T10:39:50.305Z,57.37
2022-09-22T10:42:32.828Z,56.61
2022-09-22T10:45:20.604Z,56.91
2022-09-22T10:47:51.551Z,56.13
2022-09-22T10:50:46.124Z,55.81
2022-09-22T10:53:28.629Z,54.93
2022-09-22T10:56:10.161Z,52.98
2022-09-22T10:58:47.514Z,52.53
2022-09-22T11:01:39.962Z,52.05
2022-09-22T11:04:41.604Z,50.17
2022-09-22T11:07:38.153Z,49.26
2022-09-22T11:10:55.194Z,49.34
2022-09-22T11:13:40.603Z,50.10
2022-09-22T11:16:28.088Z,49.58
2022-09-22T11:19:13.781Z,49.50
2022-09-22T11:22:21.611Z,51.26
2022-09-22T11:25:00.876Z,51.25
2022-09-22T11:27:44.721Z,52.18
2022-09-22T11:30:20.710Z,52.77
2022-09-22T11:33:03.630Z,53.47
2022-09-22T11:35:43.327Z,53.90
2022-09-22T11:38:37.065Z,54.73
2022-09-22T11:41:12.783Z,53.51
2022-09-22T11:44:18.984Z,54.41
2022-09-22T11:46:56.430Z,52.84
2022-09-22T11:49:55.708Z,52.86
2022-09-22T11:52:49.246Z,54.20
2022-09-22T11:55:24.199Z,52.93
2022-09-22T11:57:57.498Z,52.20
2022-09-22T12:00:29.809Z,51.97
2022-09-22T12:03:17.330Z,50.64
2022-09-22T12:05:58.698Z,49.04
2022-09-22T12:08:40.407Z,48.65
2022-09-22T12:11:14.099Z,50.44
2022-09-22T12:13:45.529Z,50.63
2022-09-22T12:16:33.438Z,50.94
2022-09-22T12:19:13.558Z,52.48
2022-09-22T12:22:12.984Z,51.47
2022-09-22T12:24:40.240Z,51.43
2022-09-22T12:27:13.019Z,51.77
2022-09-22T12:29:40.218Z,52.38
2022-09-22T12:32:26.557Z,50.06
2022-09-22T12:34:57.863Z,49.96
2022-09-22T12:37:39.404Z,49.09
2022-09-22T12:40:18.935Z,50.39
2022-09-22T12:42:50.985Z,49.73
2022-09-22T12:45:36.965Z,49.41
2022-09-22T12:48:12.002Z,48.82
2022-09-22T12:50:42.144Z,47.92
2022-09-22T12:53:28.265Z,47.63
2022-09-22T12:55:57.060Z,47.26
2022-09-22T12:58:24.402Z,47.06
2022-09-22T13:00:56.621Z,47.98
2022-09-22T13:03:26.907Z,48.04
2022-09-22T13:06:23.274Z,49.11
2022-09-22T13:08:53.030Z,50.29
2022-09-22T13:11:40.638Z,50.55
2022-09-22T13:14:46.718Z,50.98
2022-09-22T13:17:42.402Z,51.08
2022-09-22T13:20:18.296Z,51.22
2022-09-22T13:22:46.893Z,53.23
2022-09-22T13:25:31.810Z,56.40
2022-09-22T13:28:17.825Z,61.86
2022-09-22T13:30:46.457Z,65.31
2022-09-22T13:33:26.233Z,62.46
2022-09-22T13:36:04.547Z,67.21
2022-09-22T13:38:35.416Z,70.85
2022-09-22T13:41:03.643Z,70.13
2022-09-22T13:43:37.547Z,71.13
2022-09-22T13:46:06.712Z,71.33
2022-09-22T13:48:37.077Z,70.49
2022-09-22T13:51:10.738Z,72.33
2022-09-22T13:53:38.868Z,68.64
2022-09-22T13:56:12.809Z,66.21
2022-09-22T13:58:44.068Z,69.08
2022-09-22T14:01:17.013Z,68.80
2022-09-22T14:03:44.848Z,68.14
2022-09-22T14:06:16.275Z,71.52
2022-09-22T14:08:45.287Z,76.01
2022-09-22T14:11:28.930Z,78.82
2022-09-22T14:13:58.815Z,82.85
2022-09-22T14:16:34.921Z,80.79
2022-09-22T14:19:04.777Z,84.81
2022-09-22T14:21:34.111Z,85.00
2022-09-22T14:24:02.088Z,86.90
2022-09-22T14:26:33.823Z,87.50
2022-09-22T14:29:19.817Z,87.68
2022-09-22T14:31:53.861Z,86.61
2022-09-22T14:34:25.862Z,88.80
2022-09-22T14:36:54.489Z,90.14
2022-09-22T14:39:31.845Z,87.70
2022-09-22T14:42:10.927Z,81.82
2022-09-22T14:44:50.714Z,85.21
2022-09-22T14:47:25.339Z,85.37
2022-09-22T14:50:21.223Z,85.72
2022-09-22T14:53:24.070Z,87.78
2022-09-22T14:55:57.954Z,90.85
2022-09-22T14:58:35.315Z,88.21
2022-09-22T15:01:43.051Z,92.13
2022-09-22T15:04:24.286Z,91.04
2022-09-22T15:06:58.550Z,89.36
2022-09-22T15:09:32.631Z,90.30
2022-09-22T15:12:04.082Z,92.59
2022-09-22T15:18:03.519Z,95.81
2022-09-22T15:20:36.461Z,96.92
2022-09-22T15:23:05.424Z,99.75
2022-09-22T15:25:33.706Z,98.04
2022-09-22T15:28:02.926Z,98.56
2022-09-22T15:30:36.381Z,98.92
2022-09-22T15:33:04.069Z,99.11
2022-09-22T15:35:37.693Z,100.00
2022-09-22T15:38:13.053Z,100.00
2022-09-22T15:40:40.090Z,100.00
2022-09-22T15:43:13.366Z,100.00
2022-09-22T15:45:48.113Z,100.00
2022-09-22T15:48:29.551Z,100.00
2022-09-22T15:50:58.441Z,100.00
2022-09-22T15:53:25.452Z,100.00
2022-09-22T15:55:54.735Z,100.00
2022-09-22T15:58:25.745Z,100.00
2022-09-22T16:00:53.444Z,100.00
2022-09-22T16:03:24.133Z,100.00
2022-09-22T16:05:57.612Z,100.00
2022-09-22T16:08:42.073Z,100.00
2022-09-22T16:11:14.942Z,100.00
2022-09-22T16:13:42.648Z,100.00
2022-09-22T16:16:10.836Z,100.00
2022-09-22T16:18:40.014Z,100.00
2022-09-22T16:21:27.980Z,100.00
2022-09-22T16:24:00.519Z,100.00
2022-09-22T16:26:31.969Z,100.00
2022-09-22T16:28:59.687Z,100.00
2022-09-22T16:31:27.902Z,100.00
2022-09-22T16:33:57.007Z,100.00
2022-09-22T16:36:28.945Z,100.00
2022-09-22T16:38:56.694Z,100.00
2022-09-22T16:41:29.624Z,100.00
2022-09-22T16:43:58.318Z,100.00
2022-09-22T16:46:27.195Z,100.00
2022-09-22T16:49:05.528Z,100.00
2022-09-22T16:51:35.806Z,100.00
2022-09-22T16:54:05.875Z,100.00
2022-09-22T16:56:35.759Z,100.00
2022-09-22T16:59:03.080Z,100.00
2022-09-22T17:01:32.676Z,100.00
2022-09-22T17:03:59.687Z,100.00
2022-09-22T17:06:27.993Z,100.00
2022-09-22T17:08:57.641Z,100.00
2022-09-22T17:11:36.197Z,100.00
2022-09-22T17:14:12.725Z,100.00
2022-09-22T17:16:56.575Z,100.00
2022-09-22T17:19:28.026Z,100.00
2022-09-22T17:21:56.211Z,100.00
2022-09-22T17:24:24.798Z,100.00
2022-09-22T17:26:55.544Z,100.00
2022-09-22T17:29:32.367Z,100.00
2022-09-22T17:32:03.185Z,100.00
2022-09-22T17:34:33.218Z,100.00
2022-09-22T17:37:01.505Z,100.00
2022-09-22T17:39:29.862Z,100.00
2022-09-22T17:41:57.415Z,100.00
2022-09-22T17:44:29.331Z,100.00
2022-09-22T17:47:15.075Z,100.00
2022-09-22T17:50:00.821Z,100.00
2022-09-22T17:52:34.009Z,100.00
2022-09-22T17:55:09.778Z,100.00
2022-09-22T17:57:42.873Z,100.00
2022-09-22T18:00:16.882Z,100.00
2022-09-22T18:02:45.075Z,100.00
2022-09-22T18:05:14.770Z,100.00
2022-09-22T18:07:42.967Z,100.00
2022-09-22T18:10:16.026Z,100.00
2022-09-22T18:12:44.608Z,100.00
2022-09-22T18:15:13.585Z,100.00
2022-09-22T18:17:43.133Z,100.00
2022-09-22T18:20:16.438Z,100.00
2022-09-22T18:22:48.356Z,100.00
2022-09-22T18:25:20.812Z,100.00
2022-09-22T18:27:50.805Z,100.00
2022-09-22T18:30:19.540Z,100.00
2022-09-22T18:32:48.188Z,100.00
2022-09-22T18:35:15.463Z,100.00
2022-09-22T18:37:43.173Z,100.00
2022-09-22T18:40:12.846Z,100.00
2022-09-22T18:42:40.746Z,100.00
2022-09-22T18:45:08.154Z,100.00
2022-09-22T18:47:40.023Z,100.00
2022-09-22T18:50:07.791Z,100.00
2022-09-22T18:52:34.837Z,100.00
2022-09-22T18:55:05.094Z,100.00
2022-09-22T18:57:32.416Z,100.00
2022-09-22T19:00:01.376Z,100.00
2022-09-22T19:02:28.853Z,100.00
2022-09-22T19:04:56.007Z,100.00
2022-09-22T19:07:42.071Z,100.00
2022-09-22T19:10:19.294Z,100.00
2022-09-22T19:12:46.437Z,100.00
2022-09-22T19:15:16.971Z,100.00
2022-09-22T19:17:46.237Z,100.00
2022-09-22T19:20:21.482Z,100.00
2022-09-22T19:22:50.706Z,100.00
2022-09-22T19:25:19.320Z,100.00
2022-09-22T19:27:46.446Z,100.00
2022-09-22T19:30:13.913Z,98.88
2022-09-22T19:32:41.430Z,99.00
2022-09-22T19:35:09.419Z,99.57
2022-09-22T19:37:36.510Z,100.00
2022-09-22T19:40:09.124Z,100.00
2022-09-22T19:42:40.310Z,100.00
2022-09-22T19:45:08.288Z,100.00
2022-09-22T19:47:35.537Z,100.00
2022-09-22T19:50:03.482Z,100.00
2022-09-22T19:52:30.255Z,100.00
2022-09-22T19:54:57.574Z,100.00
2022-09-22T19:57:24.594Z,100.00
2022-09-22T19:59:51.627Z,100.00
2022-09-22T20:02:20.696Z,100.00
2022-09-22T20:04:47.629Z,100.00
2022-09-22T20:07:15.062Z,100.00
2022-09-22T20:09:42.523Z,100.00
2022-09-22T20:12:09.677Z,100.00
2022-09-22T20:14:37.106Z,99.80
2022-09-22T20:17:07.469Z,100.00
2022-09-22T20:19:40.104Z,100.00
2022-09-22T20:22:25.610Z,100.00
2022-09-22T20:24:58.183Z,100.00
2022-09-22T20:27:31.631Z,100.00
2022-09-22T20:29:59.510Z,99.97
2022-09-22T20:32:29.143Z,99.75
2022-09-22T20:34:56.315Z,99.77
2022-09-22T20:37:25.160Z,99.79
2022-09-22T20:39:52.984Z,98.49
2022-09-22T20:42:20.436Z,97.84
2022-09-22T20:44:53.990Z,99.08
2022-09-22T20:47:23.511Z,98.95
2022-09-22T20:49:52.103Z,99.73
2022-09-22T20:52:20.482Z,100.00
2022-09-22T20:54:48.406Z,99.56
2022-09-22T20:57:16.757Z,100.00
2022-09-22T20:59:48.143Z,100.00
2022-09-22T21:02:16.076Z,100.00
2022-09-22T21:04:43.152Z,99.51
2022-09-22T21:07:11.669Z,99.88
2022-09-22T21:09:57.269Z,100.00
2022-09-22T21:12:30.810Z,100.00
2022-09-22T21:14:58.652Z,100.00
2022-09-22T21:17:28.043Z,100.00
2022-09-22T21:19:58.095Z,100.00
2022-09-22T21:22:28.385Z,100.00
2022-09-22T21:24:59.787Z,100.00
2022-09-22T21:27:36.739Z,100.00
2022-09-22T21:30:05.738Z,100.00
2022-09-22T21:32:32.816Z,100.00
2022-09-22T21:35:00.141Z,100.00
2022-09-22T21:37:28.364Z,100.00
2022-09-22T21:40:02.714Z,100.00
2022-09-22T21:42:31.559Z,100.00
2022-09-22T21:44:58.668Z,100.00
2022-09-22T21:47:25.676Z,100.00
2022-09-22T21:50:08.639Z,100.00
2022-09-22T21:52:38.976Z,99.98
2022-09-22T21:55:06.631Z,99.53
2022-09-22T21:57:33.559Z,99.67
2022-09-22T22:00:00.659Z,99.41
2022-09-22T22:02:27.723Z,98.89
2022-09-22T22:04:56.135Z,99.32
2022-09-22T22:07:23.117Z,98.30
2022-09-22T22:09:50.039Z,98.45
2022-09-22T22:12:17.028Z,99.18
2022-09-22T22:14:47.452Z,99.23
2022-09-22T22:17:14.409Z,99.30
2022-09-22T22:19:41.375Z,98.47
2022-09-22T22:22:08.473Z,99.75
2022-09-22T22:24:42.604Z,97.74
2022-09-22T22:27:11.397Z,99.78
2022-09-22T22:29:41.509Z,100.00
2022-09-22T22:32:10.724Z,100.00
2022-09-22T22:34:38.147Z,99.99
2022-09-22T22:37:09.200Z,100.00
2022-09-22T22:39:36.302Z,100.00
2022-09-22T22:42:03.365Z,99.89
2022-09-22T22:44:30.366Z,99.54
2022-09-22T22:46:57.491Z,100.00
2022-09-22T22:49:24.627Z,99.45
2022-09-22T22:51:52.495Z,99.96
2022-09-22T22:54:19.619Z,100.00
2022-09-22T22:56:50.936Z,99.20
2022-09-22T22:59:18.444Z,99.08
2022-09-22T23:01:45.586Z,98.99
2022-09-22T23:04:12.805Z,98.41
2022-09-22T23:06:44.338Z,98.80
2022-09-22T23:09:14.559Z,99.20
2022-09-22T23:11:42.504Z,99.44
2022-09-22T23:14:11.900Z,99.56
2022-09-22T23:16:50.234Z,99.38
2022-09-22T23:19:18.416Z,99.57
2022-09-22T23:21:46.518Z,99.17
2022-09-22T23:24:16.791Z,100.00
2022-09-22T23:26:45.645Z,100.00
2022-09-22T23:29:12.866Z,99.93
2022-09-22T23:31:40.110Z,99.83
2022-09-22T23:34:07.367Z,100.00
2022-09-22T23:36:34.971Z,100.00
2022-09-22T23:39:04.313Z,100.00
2022-09-22T23:41:33.446Z,100.00
2022-09-22T23:44:00.713Z,100.00
2022-09-22T23:46:28.316Z,99.97
2022-09-22T23:48:55.994Z,100.00
2022-09-22T23:51:23.503Z,100.00
2022-09-22T23:53:50.759Z,99.03
2022-09-22T23:56:17.715Z,100.00
2022-09-22T23:58:45.640Z,98.96
